sensor_id;sensor_type;location;lat;lon;timestamp;temperature;humidity
6536;DHT22;34330;52.08032700;5.40923460;2022-07-29T00:03:45;21.10;54.20
6536;DHT22;34330;52.08032700;5.40923460;2022-07-29T00:08:43;21.10;55.40
6536;DHT22;34330;52.08032700;5.40923460;2022-07-29T00:11:11;21.00;55.30
6536;DHT22;34330;52.08032700;5.40923460;2022-07-29T00:13:39;21.00;55.30
6536;DHT22;34330;52.08032700;5.40923460;2022-07-29T00:16:07;20.90;55.10
6536;DHT22;34330;52.08032700;5.40923460;2022-07-29T00:18:35;20.90;55.10
6536;DHT22;34330;52.08032700;5.40923460;2022-07-29T00:21:03;20.90;55.10
6536;DHT22;34330;52.08032700;5.40923460;2022-07-29T00:23:31;21.00;55.20
6536;DHT22;34330;52.08032700;5.40923460;2022-07-29T00:26:03;20.90;55.20
6536;DHT22;34330;52.08032700;5.40923460;2022-07-29T00:28:31;20.80;55.20
6536;DHT22;34330;52.08032700;5.40923460;2022-07-29T00:30:59;20.90;55.30
6536;DHT22;34330;52.08032700;5.40923460;2022-07-29T00:33:28;20.80;55.40
6536;DHT22;34330;52.08032700;5.40923460;2022-07-29T00:38:24;20.80;55.50
6536;DHT22;34330;52.08032700;5.40923460;2022-07-29T00:40:51;20.80;55.50
6536;DHT22;34330;52.08032700;5.40923460;2022-07-29T00:43:21;20.70;55.60
6536;DHT22;34330;52.08032700;5.40923460;2022-07-29T00:45:49;20.70;55.70
6536;DHT22;34330;52.08032700;5.40923460;2022-07-29T00:48:17;20.70;55.70
6536;DHT22;34330;52.08032700;5.40923460;2022-07-29T00:55:41;20.60;55.90
6536;DHT22;34330;52.08032700;5.40923460;2022-07-29T00:58:12;20.60;56.20
6536;DHT22;34330;52.08032700;5.40923460;2022-07-29T01:00:43;20.50;56.10
6536;DHT22;34330;52.08032700;5.40923460;2022-07-29T01:03:12;20.50;56.30
6536;DHT22;34330;52.08032700;5.40923460;2022-07-29T01:05:41;20.40;57.70
6536;DHT22;34330;52.08032700;5.40923460;2022-07-29T01:08:18;20.30;57.50
6536;DHT22;34330;52.08032700;5.40923460;2022-07-29T01:10:47;20.40;57.30
6536;DHT22;34330;52.08032700;5.40923460;2022-07-29T01:13:17;20.40;57.20
6536;DHT22;34330;52.08032700;5.40923460;2022-07-29T01:15:51;20.40;57.10
6536;DHT22;34330;52.08032700;5.40923460;2022-07-29T01:18:24;20.40;57.00
6536;DHT22;34330;52.08032700;5.40923460;2022-07-29T01:21:21;20.40;57.10
6536;DHT22;34330;52.08032700;5.40923460;2022-07-29T01:24:02;20.30;57.00
6536;DHT22;34330;52.08032700;5.40923460;2022-07-29T01:26:41;20.30;57.00
6536;DHT22;34330;52.08032700;5.40923460;2022-07-29T01:29:21;20.40;57.20
6536;DHT22;34330;52.08032700;5.40923460;2022-07-29T01:32:00;20.30;57.00
6536;DHT22;34330;52.08032700;5.40923460;2022-07-29T01:34:37;20.30;57.20
6536;DHT22;34330;52.08032700;5.40923460;2022-07-29T01:37:15;20.20;57.40
6536;DHT22;34330;52.08032700;5.40923460;2022-07-29T01:39:47;20.20;57.40
6536;DHT22;34330;52.08032700;5.40923460;2022-07-29T01:42:26;20.20;57.40
6536;DHT22;34330;52.08032700;5.40923460;2022-07-29T01:45:00;20.10;57.50
6536;DHT22;34330;52.08032700;5.40923460;2022-07-29T01:47:34;20.10;57.60
6536;DHT22;34330;52.08032700;5.40923460;2022-07-29T01:50:08;20.10;57.70
6536;DHT22;34330;52.08032700;5.40923460;2022-07-29T01:52:47;20.00;57.80
6536;DHT22;34330;52.08032700;5.40923460;2022-07-29T01:55:17;20.00;57.70
6536;DHT22;34330;52.08032700;5.40923460;2022-07-29T01:57:48;20.00;58.80
6536;DHT22;34330;52.08032700;5.40923460;2022-07-29T02:00:18;20.00;58.70
6536;DHT22;34330;52.08032700;5.40923460;2022-07-29T02:02:47;19.90;59.50
6536;DHT22;34330;52.08032700;5.40923460;2022-07-29T02:05:18;19.90;59.20
6536;DHT22;34330;52.08032700;5.40923460;2022-07-29T02:07:48;20.00;59.10
6536;DHT22;34330;52.08032700;5.40923460;2022-07-29T02:10:21;20.00;58.90
6536;DHT22;34330;52.08032700;5.40923460;2022-07-29T02:12:52;20.00;58.70
6536;DHT22;34330;52.08032700;5.40923460;2022-07-29T02:15:23;20.00;58.50
6536;DHT22;34330;52.08032700;5.40923460;2022-07-29T02:17:55;20.00;58.50
6536;DHT22;34330;52.08032700;5.40923460;2022-07-29T02:20:25;20.00;58.50
6536;DHT22;34330;52.08032700;5.40923460;2022-07-29T02:22:54;20.00;58.60
6536;DHT22;34330;52.08032700;5.40923460;2022-07-29T02:25:24;20.00;58.40
6536;DHT22;34330;52.08032700;5.40923460;2022-07-29T02:28:05;20.10;58.50
6536;DHT22;34330;52.08032700;5.40923460;2022-07-29T02:30:36;20.10;58.50
6536;DHT22;34330;52.08032700;5.40923460;2022-07-29T02:33:08;20.00;58.50
6536;DHT22;34330;52.08032700;5.40923460;2022-07-29T02:35:37;20.00;58.50
6536;DHT22;34330;52.08032700;5.40923460;2022-07-29T02:38:07;20.00;58.60
6536;DHT22;34330;52.08032700;5.40923460;2022-07-29T02:40:53;20.00;58.60
6536;DHT22;34330;52.08032700;5.40923460;2022-07-29T02:43:22;20.00;58.70
6536;DHT22;34330;52.08032700;5.40923460;2022-07-29T02:45:54;20.00;58.60
6536;DHT22;34330;52.08032700;5.40923460;2022-07-29T02:48:35;20.00;58.70
6536;DHT22;34330;52.08032700;5.40923460;2022-07-29T02:51:06;19.90;58.60
6536;DHT22;34330;52.08032700;5.40923460;2022-07-29T02:53:41;19.90;58.50
6536;DHT22;34330;52.08032700;5.40923460;2022-07-29T02:56:13;20.00;58.70
6536;DHT22;34330;52.08032700;5.40923460;2022-07-29T02:58:46;19.90;58.70
6536;DHT22;34330;52.08032700;5.40923460;2022-07-29T03:01:22;20.00;58.70
6536;DHT22;34330;52.08032700;5.40923460;2022-07-29T03:03:52;19.90;58.80
6536;DHT22;34330;52.08032700;5.40923460;2022-07-29T03:06:23;18.40;57.40
6536;DHT22;34330;52.08032700;5.40923460;2022-07-29T03:09:03;19.90;58.80
6536;DHT22;34330;52.08032700;5.40923460;2022-07-29T03:11:39;19.80;58.80
6536;DHT22;34330;52.08032700;5.40923460;2022-07-29T03:14:17;19.80;58.90
6536;DHT22;34330;52.08032700;5.40923460;2022-07-29T03:16:49;19.80;59.00
6536;DHT22;34330;52.08032700;5.40923460;2022-07-29T03:24:29;19.70;59.10
6536;DHT22;34330;52.08032700;5.40923460;2022-07-29T03:26:58;19.70;59.00
6536;DHT22;34330;52.08032700;5.40923460;2022-07-29T03:29:26;19.70;59.20
6536;DHT22;34330;52.08032700;5.40923460;2022-07-29T03:32:02;19.70;59.20
6536;DHT22;34330;52.08032700;5.40923460;2022-07-29T03:34:35;16.70;56.50
6536;DHT22;34330;52.08032700;5.40923460;2022-07-29T03:37:05;19.70;59.40
6536;DHT22;34330;52.08032700;5.40923460;2022-07-29T03:39:39;19.70;59.40
6536;DHT22;34330;52.08032700;5.40923460;2022-07-29T03:42:11;19.70;59.50
6536;DHT22;34330;52.08032700;5.40923460;2022-07-29T03:44:44;19.70;59.50
6536;DHT22;34330;52.08032700;5.40923460;2022-07-29T03:47:15;19.60;59.40
6536;DHT22;34330;52.08032700;5.40923460;2022-07-29T03:49:49;19.70;59.50
6536;DHT22;34330;52.08032700;5.40923460;2022-07-29T03:52:18;19.60;59.50
6536;DHT22;34330;52.08032700;5.40923460;2022-07-29T03:54:46;19.60;59.50
6536;DHT22;34330;52.08032700;5.40923460;2022-07-29T03:57:14;19.60;59.50
6536;DHT22;34330;52.08032700;5.40923460;2022-07-29T03:59:44;19.60;59.60
6536;DHT22;34330;52.08032700;5.40923460;2022-07-29T04:02:14;19.60;59.60
6536;DHT22;34330;52.08032700;5.40923460;2022-07-29T04:07:17;19.50;60.00
6536;DHT22;34330;52.08032700;5.40923460;2022-07-29T04:09:46;19.50;60.00
6536;DHT22;34330;52.08032700;5.40923460;2022-07-29T04:12:13;19.50;59.80
6536;DHT22;34330;52.08032700;5.40923460;2022-07-29T04:14:41;19.50;59.90
6536;DHT22;34330;52.08032700;5.40923460;2022-07-29T04:17:09;19.50;59.80
6536;DHT22;34330;52.08032700;5.40923460;2022-07-29T04:19:38;19.50;59.90
6536;DHT22;34330;52.08032700;5.40923460;2022-07-29T04:24:35;19.50;59.60
6536;DHT22;34330;52.08032700;5.40923460;2022-07-29T04:27:03;19.50;59.80
6536;DHT22;34330;52.08032700;5.40923460;2022-07-29T04:31:59;19.40;59.80
6536;DHT22;34330;52.08032700;5.40923460;2022-07-29T04:34:27;19.40;59.70
6536;DHT22;34330;52.08032700;5.40923460;2022-07-29T04:36:56;19.50;59.90
6536;DHT22;34330;52.08032700;5.40923460;2022-07-29T04:39:24;19.50;60.00
6536;DHT22;34330;52.08032700;5.40923460;2022-07-29T04:41:58;19.40;59.90
6536;DHT22;34330;52.08032700;5.40923460;2022-07-29T04:44:26;19.40;60.00
6536;DHT22;34330;52.08032700;5.40923460;2022-07-29T04:46:56;19.40;60.00
6536;DHT22;34330;52.08032700;5.40923460;2022-07-29T04:49:24;19.40;60.10
6536;DHT22;34330;52.08032700;5.40923460;2022-07-29T04:51:53;15.10;56.20
6536;DHT22;34330;52.08032700;5.40923460;2022-07-29T04:54:22;19.40;60.00
6536;DHT22;34330;52.08032700;5.40923460;2022-07-29T05:04:16;19.40;60.20
6536;DHT22;34330;52.08032700;5.40923460;2022-07-29T05:06:45;19.50;60.30
6536;DHT22;34330;52.08032700;5.40923460;2022-07-29T05:09:13;19.40;60.40
6536;DHT22;34330;52.08032700;5.40923460;2022-07-29T05:11:42;19.50;60.40
6536;DHT22;34330;52.08032700;5.40923460;2022-07-29T05:14:10;19.40;60.20
6536;DHT22;34330;52.08032700;5.40923460;2022-07-29T05:29:06;19.50;60.70
6536;DHT22;34330;52.08032700;5.40923460;2022-07-29T05:31:54;19.50;60.60
6536;DHT22;34330;52.08032700;5.40923460;2022-07-29T05:34:22;19.50;60.90
6536;DHT22;34330;52.08032700;5.40923460;2022-07-29T05:39:20;19.60;61.00
6536;DHT22;34330;52.08032700;5.40923460;2022-07-29T05:42:08;19.60;60.90
6536;DHT22;34330;52.08032700;5.40923460;2022-07-29T05:44:38;19.60;60.90
6536;DHT22;34330;52.08032700;5.40923460;2022-07-29T05:47:06;19.60;61.10
6536;DHT22;34330;52.08032700;5.40923460;2022-07-29T05:49:34;19.70;61.10
6536;DHT22;34330;52.08032700;5.40923460;2022-07-29T05:52:02;19.70;61.10
6536;DHT22;34330;52.08032700;5.40923460;2022-07-29T05:54:30;19.70;61.10
6536;DHT22;34330;52.08032700;5.40923460;2022-07-29T05:56:58;19.80;61.00
6536;DHT22;34330;52.08032700;5.40923460;2022-07-29T05:59:26;19.80;61.10
6536;DHT22;34330;52.08032700;5.40923460;2022-07-29T06:01:57;19.80;61.10
6536;DHT22;34330;52.08032700;5.40923460;2022-07-29T06:04:25;19.90;61.30
6536;DHT22;34330;52.08032700;5.40923460;2022-07-29T06:09:22;20.00;61.30
6536;DHT22;34330;52.08032700;5.40923460;2022-07-29T06:11:50;20.00;61.40
6536;DHT22;34330;52.08032700;5.40923460;2022-07-29T06:14:18;20.00;61.00
6536;DHT22;34330;52.08032700;5.40923460;2022-07-29T06:19:16;20.00;61.40
6536;DHT22;34330;52.08032700;5.40923460;2022-07-29T06:21:45;20.00;61.50
6536;DHT22;34330;52.08032700;5.40923460;2022-07-29T06:24:14;20.10;61.40
6536;DHT22;34330;52.08032700;5.40923460;2022-07-29T06:26:43;20.10;61.30
6536;DHT22;34330;52.08032700;5.40923460;2022-07-29T06:34:07;20.20;61.50
6536;DHT22;34330;52.08032700;5.40923460;2022-07-29T06:36:37;20.20;61.70
6536;DHT22;34330;52.08032700;5.40923460;2022-07-29T06:44:05;20.30;62.10
6536;DHT22;34330;52.08032700;5.40923460;2022-07-29T06:49:01;20.40;61.70
6536;DHT22;34330;52.08032700;5.40923460;2022-07-29T06:51:30;20.50;61.50
6536;DHT22;34330;52.08032700;5.40923460;2022-07-29T06:53:59;20.50;61.30
6536;DHT22;34330;52.08032700;5.40923460;2022-07-29T06:56:33;20.50;61.30
6536;DHT22;34330;52.08032700;5.40923460;2022-07-29T06:59:05;20.50;61.10
6536;DHT22;34330;52.08032700;5.40923460;2022-07-29T07:04:02;20.60;61.00
6536;DHT22;34330;52.08032700;5.40923460;2022-07-29T07:06:30;20.70;61.40
6536;DHT22;34330;52.08032700;5.40923460;2022-07-29T07:08:59;20.70;61.30
6536;DHT22;34330;52.08032700;5.40923460;2022-07-29T07:13:55;20.80;61.30
6536;DHT22;34330;52.08032700;5.40923460;2022-07-29T07:18:59;20.80;62.20
6536;DHT22;34330;52.08032700;5.40923460;2022-07-29T07:21:29;20.90;61.90
6536;DHT22;34330;52.08032700;5.40923460;2022-07-29T07:23:59;21.00;61.60
6536;DHT22;34330;52.08032700;5.40923460;2022-07-29T07:26:27;21.10;61.60
6536;DHT22;34330;52.08032700;5.40923460;2022-07-29T07:28:56;21.20;61.30
6536;DHT22;34330;52.08032700;5.40923460;2022-07-29T07:31:24;21.30;61.60
6536;DHT22;34330;52.08032700;5.40923460;2022-07-29T07:33:52;21.40;61.30
6536;DHT22;34330;52.08032700;5.40923460;2022-07-29T07:36:21;21.50;61.30
6536;DHT22;34330;52.08032700;5.40923460;2022-07-29T07:38:49;21.60;61.40
6536;DHT22;34330;52.08032700;5.40923460;2022-07-29T07:41:19;21.70;61.10
6536;DHT22;34330;52.08032700;5.40923460;2022-07-29T07:46:15;22.00;61.00
6536;DHT22;34330;52.08032700;5.40923460;2022-07-29T07:51:12;22.20;60.50
6536;DHT22;34330;52.08032700;5.40923460;2022-07-29T07:53:40;22.40;60.30
6536;DHT22;34330;52.08032700;5.40923460;2022-07-29T07:56:08;22.50;60.20
6536;DHT22;34330;52.08032700;5.40923460;2022-07-29T07:58:39;22.60;60.30
6536;DHT22;34330;52.08032700;5.40923460;2022-07-29T08:01:07;22.80;60.00
6536;DHT22;34330;52.08032700;5.40923460;2022-07-29T08:03:36;22.90;60.00
6536;DHT22;34330;52.08032700;5.40923460;2022-07-29T08:06:04;23.00;59.90
6536;DHT22;34330;52.08032700;5.40923460;2022-07-29T08:08:32;23.10;59.80
6536;DHT22;34330;52.08032700;5.40923460;2022-07-29T08:11:00;23.10;60.10
6536;DHT22;34330;52.08032700;5.40923460;2022-07-29T08:13:35;23.20;59.50
6536;DHT22;34330;52.08032700;5.40923460;2022-07-29T08:16:06;23.30;60.00
6536;DHT22;34330;52.08032700;5.40923460;2022-07-29T08:18:44;23.30;59.50
6536;DHT22;34330;52.08032700;5.40923460;2022-07-29T08:21:13;23.40;58.80
6536;DHT22;34330;52.08032700;5.40923460;2022-07-29T08:23:43;23.50;58.80
6536;DHT22;34330;52.08032700;5.40923460;2022-07-29T08:26:24;23.50;58.60
6536;DHT22;34330;52.08032700;5.40923460;2022-07-29T08:28:52;23.50;58.90
6536;DHT22;34330;52.08032700;5.40923460;2022-07-29T08:31:22;23.60;59.10
6536;DHT22;34330;52.08032700;5.40923460;2022-07-29T08:33:50;25.30;60.60
6536;DHT22;34330;52.08032700;5.40923460;2022-07-29T08:36:18;23.80;58.30
6536;DHT22;34330;52.08032700;5.40923460;2022-07-29T08:38:47;23.80;58.40
6536;DHT22;34330;52.08032700;5.40923460;2022-07-29T08:41:16;23.90;58.60
6536;DHT22;34330;52.08032700;5.40923460;2022-07-29T08:43:45;23.90;58.10
6536;DHT22;34330;52.08032700;5.40923460;2022-07-29T08:46:13;23.90;58.00
6536;DHT22;34330;52.08032700;5.40923460;2022-07-29T08:48:43;24.00;58.30
6536;DHT22;34330;52.08032700;5.40923460;2022-07-29T08:51:14;24.10;57.60
6536;DHT22;34330;52.08032700;5.40923460;2022-07-29T08:53:43;24.10;58.00
6536;DHT22;34330;52.08032700;5.40923460;2022-07-29T08:56:12;24.10;57.60
6536;DHT22;34330;52.08032700;5.40923460;2022-07-29T08:58:41;24.10;58.00
6536;DHT22;34330;52.08032700;5.40923460;2022-07-29T09:01:16;24.20;57.40
6536;DHT22;34330;52.08032700;5.40923460;2022-07-29T09:03:47;24.20;57.60
6536;DHT22;34330;52.08032700;5.40923460;2022-07-29T09:06:18;26.90;59.60
6536;DHT22;34330;52.08032700;5.40923460;2022-07-29T09:08:48;25.30;58.50
6536;DHT22;34330;52.08032700;5.40923460;2022-07-29T09:11:17;24.30;57.60
6536;DHT22;34330;52.08032700;5.40923460;2022-07-29T09:13:45;24.40;57.20
6536;DHT22;34330;52.08032700;5.40923460;2022-07-29T09:16:14;27.10;58.70
6536;DHT22;34330;52.08032700;5.40923460;2022-07-29T09:19:19;26.70;58.30
6536;DHT22;34330;52.08032700;5.40923460;2022-07-29T09:21:47;24.80;57.60
6536;DHT22;34330;52.08032700;5.40923460;2022-07-29T09:24:40;25.00;56.90
6536;DHT22;34330;52.08032700;5.40923460;2022-07-29T09:27:20;25.10;56.70
6536;DHT22;34330;52.08032700;5.40923460;2022-07-29T09:29:56;25.20;56.10
6536;DHT22;34330;52.08032700;5.40923460;2022-07-29T09:32:25;25.40;55.40
6536;DHT22;34330;52.08032700;5.40923460;2022-07-29T09:35:19;25.40;55.30
6536;DHT22;34330;52.08032700;5.40923460;2022-07-29T09:37:48;25.60;53.80
6536;DHT22;34330;52.08032700;5.40923460;2022-07-29T09:40:18;25.70;54.20
6536;DHT22;34330;52.08032700;5.40923460;2022-07-29T09:42:47;25.80;54.60
6536;DHT22;34330;52.08032700;5.40923460;2022-07-29T09:45:27;26.50;54.20
6536;DHT22;34330;52.08032700;5.40923460;2022-07-29T09:47:56;28.90;54.90
6536;DHT22;34330;52.08032700;5.40923460;2022-07-29T09:50:42;26.10;53.00
6536;DHT22;34330;52.08032700;5.40923460;2022-07-29T09:53:11;26.10;53.00
6536;DHT22;34330;52.08032700;5.40923460;2022-07-29T09:55:49;26.30;52.70
6536;DHT22;34330;52.08032700;5.40923460;2022-07-29T09:58:18;26.30;51.70
6536;DHT22;34330;52.08032700;5.40923460;2022-07-29T10:00:47;26.40;51.90
6536;DHT22;34330;52.08032700;5.40923460;2022-07-29T10:03:17;26.40;52.00
6536;DHT22;34330;52.08032700;5.40923460;2022-07-29T10:06:04;26.40;51.30
6536;DHT22;34330;52.08032700;5.40923460;2022-07-29T10:08:32;26.50;52.00
6536;DHT22;34330;52.08032700;5.40923460;2022-07-29T10:11:09;28.40;52.10
6536;DHT22;34330;52.08032700;5.40923460;2022-07-29T10:13:38;26.60;50.30
6536;DHT22;34330;52.08032700;5.40923460;2022-07-29T10:16:06;26.70;50.00
6536;DHT22;34330;52.08032700;5.40923460;2022-07-29T10:18:35;26.70;50.80
6536;DHT22;34330;52.08032700;5.40923460;2022-07-29T10:21:06;29.20;52.50
6536;DHT22;34330;52.08032700;5.40923460;2022-07-29T10:23:35;26.80;51.00
6536;DHT22;34330;52.08032700;5.40923460;2022-07-29T10:26:13;30.20;52.70
6536;DHT22;34330;52.08032700;5.40923460;2022-07-29T10:28:41;27.00;49.90
6536;DHT22;34330;52.08032700;5.40923460;2022-07-29T10:31:13;27.00;49.30
6536;DHT22;34330;52.08032700;5.40923460;2022-07-29T10:33:51;27.10;49.80
6536;DHT22;34330;52.08032700;5.40923460;2022-07-29T10:36:40;27.20;50.60
6536;DHT22;34330;52.08032700;5.40923460;2022-07-29T10:39:20;28.60;50.30
6536;DHT22;34330;52.08032700;5.40923460;2022-07-29T10:42:01;27.40;49.20
6536;DHT22;34330;52.08032700;5.40923460;2022-07-29T10:44:35;27.50;49.00
6536;DHT22;34330;52.08032700;5.40923460;2022-07-29T10:47:07;27.50;49.50
6536;DHT22;34330;52.08032700;5.40923460;2022-07-29T10:49:35;27.60;50.10
6536;DHT22;34330;52.08032700;5.40923460;2022-07-29T10:52:09;27.70;49.60
6536;DHT22;34330;52.08032700;5.40923460;2022-07-29T10:54:42;27.30;48.90
6536;DHT22;34330;52.08032700;5.40923460;2022-07-29T10:57:19;27.80;48.90
6536;DHT22;34330;52.08032700;5.40923460;2022-07-29T11:00:26;27.90;49.70
6536;DHT22;34330;52.08032700;5.40923460;2022-07-29T11:02:55;28.00;49.30
6536;DHT22;34330;52.08032700;5.40923460;2022-07-29T11:05:25;28.10;48.90
6536;DHT22;34330;52.08032700;5.40923460;2022-07-29T11:08:23;28.10;47.80
6536;DHT22;34330;52.08032700;5.40923460;2022-07-29T11:14:00;28.20;47.50
6536;DHT22;34330;52.08032700;5.40923460;2022-07-29T11:16:58;30.90;49.50
6536;DHT22;34330;52.08032700;5.40923460;2022-07-29T11:19:26;28.10;47.60
6536;DHT22;34330;52.08032700;5.40923460;2022-07-29T11:21:56;28.20;47.80
6536;DHT22;34330;52.08032700;5.40923460;2022-07-29T11:24:27;28.00;47.00
6536;DHT22;34330;52.08032700;5.40923460;2022-07-29T11:27:14;28.00;47.60
6536;DHT22;34330;52.08032700;5.40923460;2022-07-29T11:29:51;27.90;47.00
6536;DHT22;34330;52.08032700;5.40923460;2022-07-29T11:32:20;27.90;47.20
6536;DHT22;34330;52.08032700;5.40923460;2022-07-29T11:35:10;29.90;49.00
6536;DHT22;34330;52.08032700;5.40923460;2022-07-29T11:37:45;28.00;47.70
6536;DHT22;34330;52.08032700;5.40923460;2022-07-29T11:40:34;29.10;48.90
6536;DHT22;34330;52.08032700;5.40923460;2022-07-29T11:43:02;28.00;48.20
6536;DHT22;34330;52.08032700;5.40923460;2022-07-29T11:45:45;28.00;48.30
6536;DHT22;34330;52.08032700;5.40923460;2022-07-29T11:48:17;31.10;50.00
6536;DHT22;34330;52.08032700;5.40923460;2022-07-29T11:50:58;28.10;47.90
6536;DHT22;34330;52.08032700;5.40923460;2022-07-29T11:53:34;28.10;48.20
6536;DHT22;34330;52.08032700;5.40923460;2022-07-29T11:56:04;28.10;48.40
6536;DHT22;34330;52.08032700;5.40923460;2022-07-29T11:58:36;28.20;48.70
6536;DHT22;34330;52.08032700;5.40923460;2022-07-29T12:01:06;28.20;48.90
6536;DHT22;34330;52.08032700;5.40923460;2022-07-29T12:03:34;28.20;48.60
6536;DHT22;34330;52.08032700;5.40923460;2022-07-29T12:06:11;28.30;48.50
6536;DHT22;34330;52.08032700;5.40923460;2022-07-29T12:08:42;28.30;48.60
6536;DHT22;34330;52.08032700;5.40923460;2022-07-29T12:11:18;28.40;48.20
6536;DHT22;34330;52.08032700;5.40923460;2022-07-29T12:13:49;28.50;47.70
6536;DHT22;34330;52.08032700;5.40923460;2022-07-29T12:16:18;28.50;47.70
6536;DHT22;34330;52.08032700;5.40923460;2022-07-29T12:18:59;28.60;48.00
6536;DHT22;34330;52.08032700;5.40923460;2022-07-29T12:21:28;28.60;47.20
6536;DHT22;34330;52.08032700;5.40923460;2022-07-29T12:23:58;28.70;47.60
6536;DHT22;34330;52.08032700;5.40923460;2022-07-29T12:26:35;29.50;47.60
6536;DHT22;34330;52.08032700;5.40923460;2022-07-29T12:29:06;29.80;47.90
6536;DHT22;34330;52.08032700;5.40923460;2022-07-29T12:31:46;28.90;47.20
6536;DHT22;34330;52.08032700;5.40923460;2022-07-29T12:34:15;29.00;47.60
6536;DHT22;34330;52.08032700;5.40923460;2022-07-29T12:36:44;29.20;47.00
6536;DHT22;34330;52.08032700;5.40923460;2022-07-29T12:39:15;29.20;46.60
6536;DHT22;34330;52.08032700;5.40923460;2022-07-29T12:41:44;29.30;46.80
6536;DHT22;34330;52.08032700;5.40923460;2022-07-29T12:44:12;29.40;46.60
6536;DHT22;34330;52.08032700;5.40923460;2022-07-29T12:46:40;29.40;46.60
6536;DHT22;34330;52.08032700;5.40923460;2022-07-29T12:49:08;29.50;46.60
6536;DHT22;34330;52.08032700;5.40923460;2022-07-29T12:51:39;29.50;46.30
6536;DHT22;34330;52.08032700;5.40923460;2022-07-29T12:54:09;29.60;46.50
6536;DHT22;34330;52.08032700;5.40923460;2022-07-29T12:56:40;30.60;47.10
6536;DHT22;34330;52.08032700;5.40923460;2022-07-29T12:59:15;30.80;47.00
6536;DHT22;34330;52.08032700;5.40923460;2022-07-29T13:01:44;32.60;47.80
6536;DHT22;34330;52.08032700;5.40923460;2022-07-29T13:04:24;30.00;46.10
6536;DHT22;34330;52.08032700;5.40923460;2022-07-29T13:06:59;29.80;44.70
6536;DHT22;34330;52.08032700;5.40923460;2022-07-29T13:09:38;29.90;45.10
6536;DHT22;34330;52.08032700;5.40923460;2022-07-29T13:12:09;30.90;46.00
6536;DHT22;34330;52.08032700;5.40923460;2022-07-29T13:14:38;30.00;45.40
6536;DHT22;34330;52.08032700;5.40923460;2022-07-29T13:17:09;30.10;45.50
6536;DHT22;34330;52.08032700;5.40923460;2022-07-29T13:19:39;30.20;45.00
6536;DHT22;34330;52.08032700;5.40923460;2022-07-29T13:22:08;30.50;45.20
6536;DHT22;34330;52.08032700;5.40923460;2022-07-29T13:24:48;30.70;45.10
6536;DHT22;34330;52.08032700;5.40923460;2022-07-29T13:27:19;30.30;44.50
6536;DHT22;34330;52.08032700;5.40923460;2022-07-29T13:29:47;30.40;44.60
6536;DHT22;34330;52.08032700;5.40923460;2022-07-29T13:32:18;30.40;44.40
6536;DHT22;34330;52.08032700;5.40923460;2022-07-29T13:34:54;30.40;44.30
6536;DHT22;34330;52.08032700;5.40923460;2022-07-29T13:37:22;30.40;44.40
6536;DHT22;34330;52.08032700;5.40923460;2022-07-29T13:39:50;30.40;44.50
6536;DHT22;34330;52.08032700;5.40923460;2022-07-29T13:42:20;30.50;44.20
6536;DHT22;34330;52.08032700;5.40923460;2022-07-29T13:44:48;30.50;44.10
6536;DHT22;34330;52.08032700;5.40923460;2022-07-29T13:47:18;30.60;44.20
6536;DHT22;34330;52.08032700;5.40923460;2022-07-29T13:49:46;30.50;44.30
6536;DHT22;34330;52.08032700;5.40923460;2022-07-29T13:52:15;30.70;44.60
6536;DHT22;34330;52.08032700;5.40923460;2022-07-29T13:54:43;30.70;44.20
6536;DHT22;34330;52.08032700;5.40923460;2022-07-29T13:57:11;30.80;44.10
6536;DHT22;34330;52.08032700;5.40923460;2022-07-29T13:59:41;30.80;44.20
6536;DHT22;34330;52.08032700;5.40923460;2022-07-29T14:02:10;31.00;44.40
6536;DHT22;34330;52.08032700;5.40923460;2022-07-29T14:04:41;31.00;43.80
6536;DHT22;34330;52.08032700;5.40923460;2022-07-29T14:07:09;31.80;44.20
6536;DHT22;34330;52.08032700;5.40923460;2022-07-29T14:09:42;31.20;44.10
6536;DHT22;34330;52.08032700;5.40923460;2022-07-29T14:12:10;31.30;44.00
6536;DHT22;34330;52.08032700;5.40923460;2022-07-29T14:14:38;31.40;43.80
6536;DHT22;34330;52.08032700;5.40923460;2022-07-29T14:17:08;31.40;43.40
6536;DHT22;34330;52.08032700;5.40923460;2022-07-29T14:19:36;33.20;44.70
6536;DHT22;34330;52.08032700;5.40923460;2022-07-29T14:22:06;31.50;43.60
6536;DHT22;34330;52.08032700;5.40923460;2022-07-29T14:24:36;31.60;44.10
6536;DHT22;34330;52.08032700;5.40923460;2022-07-29T14:27:04;33.30;44.20
6536;DHT22;34330;52.08032700;5.40923460;2022-07-29T14:29:33;31.70;43.30
6536;DHT22;34330;52.08032700;5.40923460;2022-07-29T14:32:04;31.80;43.70
6536;DHT22;34330;52.08032700;5.40923460;2022-07-29T14:34:34;31.60;42.20
6536;DHT22;34330;52.08032700;5.40923460;2022-07-29T14:37:03;32.10;43.00
6536;DHT22;34330;52.08032700;5.40923460;2022-07-29T14:39:32;31.60;43.00
6536;DHT22;34330;52.08032700;5.40923460;2022-07-29T14:42:07;31.60;43.00
6536;DHT22;34330;52.08032700;5.40923460;2022-07-29T14:44:46;34.30;44.30
6536;DHT22;34330;52.08032700;5.40923460;2022-07-29T14:47:22;31.60;42.40
6536;DHT22;34330;52.08032700;5.40923460;2022-07-29T14:49:52;31.50;42.50
6536;DHT22;34330;52.08032700;5.40923460;2022-07-29T14:52:20;31.50;42.90
6536;DHT22;34330;52.08032700;5.40923460;2022-07-29T14:54:48;31.50;42.90
6536;DHT22;34330;52.08032700;5.40923460;2022-07-29T14:57:16;31.60;43.10
6536;DHT22;34330;52.08032700;5.40923460;2022-07-29T14:59:45;31.70;42.80
6536;DHT22;34330;52.08032700;5.40923460;2022-07-29T15:02:13;31.80;42.60
6536;DHT22;34330;52.08032700;5.40923460;2022-07-29T15:04:41;33.10;43.40
6536;DHT22;34330;52.08032700;5.40923460;2022-07-29T15:07:10;34.30;43.80
6536;DHT22;34330;52.08032700;5.40923460;2022-07-29T15:09:40;32.30;42.60
6536;DHT22;34330;52.08032700;5.40923460;2022-07-29T15:12:15;31.80;42.30
6536;DHT22;34330;52.08032700;5.40923460;2022-07-29T15:14:44;31.80;42.10
6536;DHT22;34330;52.08032700;5.40923460;2022-07-29T15:17:12;31.70;42.10
6536;DHT22;34330;52.08032700;5.40923460;2022-07-29T15:19:44;31.70;41.80